Terminal Aerodrome Forecast
Issued by NWS

Home | Current Version | Previous Version | Text Only | Print | Product List | Glossary On
Versions: 1 2 3 4 5 6 7 8 9 10 11 12 13 14 15 16 17 18 19 20 21 22 23 24 25 26 27 28 29 30 31 32 33 34 35
000
FTUS45 KLKN 251733
TAFELY
TAF
KELY 251733Z 2518/2618 33015G25KT P6SM -SHSN BKN035 OVC060
      TEMPO 2518/2522 3SM -SHSN BKN020 OVC035
     FM260300 34008KT P6SM BKN035 OVC050=

USA.gov is the U.S. government's official web portal to all federal, state and local government web resources and services.